Kittery, Maine
Current Conditions -  °F | °C
As of 7:13 AM on Friday 24 Oct 2014 (Local Time) from KPSM Reporting Station
Overcast Overcast  
Wind Chill: 43°   Ceiling: 1500
Heat Index: 48°   Visibility: 7mi
Dew Point: 46°   Wind: 13mph
Humidity: 93%   Direction: 330°NNW
Pressure: 29.67"   Gusts: NA
Location:  43.09°N, 70.75°W
Report Text: KPSM 241113Z 33011KT 7SM SCT009 BKN015 OVC022 09/08 A2967 RMK AO2A
Loading
Personal Weather Stations






























Interactive Weather Map
Tropical Storm Tracking
New forecast layout! Learn more

10-Day Weather Forecast

Advertisements
Track Severe Weather on mobile